ASL320 LYBE-LJLJ
Flight info
| Callsign | ASL320 |
|---|---|
| Flight time | 0h 59m |
| Altitude | 36000 |
| Route | TUVAR DCT NASSY DCT PODET DCT VALLU VALLU2L |
| Aircraft | A320/M-SDE3FGHIRWY/LB1 |
Departure
| Time | 2026-05-05 16:24 |
|---|---|
| Airport | Belgrade Nikola Tesla Airport (LYBE) |
Arrival
| Time | 2026-05-05 17:23 |
|---|---|
| Airport | Ljubljana Jože Pučnik Airport (LJLJ) |
| Time | Latitude | Longitude | Altitude | Speed | Heading |
|---|---|---|---|---|---|
| 2026-05-05 16:20 | 44.81860 | 20.29520 | 330 ft | 0 kts | 154° |
| 2026-05-05 16:21 | 44.81858 | 20.29521 | 330 ft | 0 kts | 154° |
| 2026-05-05 16:22 | 44.82084 | 20.29615 | 329 ft | 19 kts | 11° |
| 2026-05-05 16:22 | 44.82215 | 20.29361 | 327 ft | 25 kts | 300° |
| 2026-05-05 16:23 | 44.82458 | 20.28856 | 324 ft | 22 kts | 334° |
| 2026-05-05 16:23 | 44.82598 | 20.28970 | 324 ft | 29 kts | 60° |
| 2026-05-05 16:23 | 44.82132 | 20.30255 | 326 ft | 148 kts | 124° |
| 2026-05-05 16:24 | 44.81485 | 20.31702 | 590 ft | 185 kts | 123° |
| 2026-05-05 16:24 | 44.80753 | 20.33254 | 1275 ft | 198 kts | 124° |
| 2026-05-05 16:24 | 44.79203 | 20.36652 | 2158 ft | 224 kts | 123° |
| 2026-05-05 16:25 | 44.78330 | 20.38606 | 2370 ft | 247 kts | 123° |
| 2026-05-05 16:25 | 44.76442 | 20.42881 | 3425 ft | 262 kts | 123° |
| 2026-05-05 16:25 | 44.75480 | 20.45077 | 4001 ft | 265 kts | 123° |
| 2026-05-05 16:26 | 44.73532 | 20.49540 | 5109 ft | 271 kts | 123° |
| 2026-05-05 16:26 | 44.71543 | 20.54128 | 5952 ft | 278 kts | 122° |
| 2026-05-05 16:27 | 44.70548 | 20.56466 | 5997 ft | 278 kts | 122° |
| 2026-05-05 16:27 | 44.69553 | 20.58795 | 5998 ft | 277 kts | 124° |
| 2026-05-05 16:27 | 44.68237 | 20.60723 | 6005 ft | 274 kts | 150° |
| 2026-05-05 16:27 | 44.66466 | 20.61597 | 5996 ft | 271 kts | 176° |
| 2026-05-05 16:28 | 44.64625 | 20.61256 | 6005 ft | 268 kts | 202° |
| 2026-05-05 16:28 | 44.63095 | 20.59801 | 5999 ft | 268 kts | 228° |
| 2026-05-05 16:28 | 44.62066 | 20.57620 | 6002 ft | 269 kts | 239° |
| 2026-05-05 16:28 | 44.61133 | 20.55341 | 6006 ft | 269 kts | 240° |
| 2026-05-05 16:29 | 44.60205 | 20.53059 | 5998 ft | 269 kts | 239° |
| 2026-05-05 16:29 | 44.59275 | 20.50778 | 6001 ft | 269 kts | 239° |
| 2026-05-05 16:29 | 44.58344 | 20.48500 | 5999 ft | 270 kts | 239° |
| 2026-05-05 16:29 | 44.57418 | 20.46240 | 6368 ft | 266 kts | 239° |
| 2026-05-05 16:30 | 44.56486 | 20.43970 | 6925 ft | 272 kts | 239° |
| 2026-05-05 16:30 | 44.55536 | 20.41663 | 7489 ft | 274 kts | 239° |
| 2026-05-05 16:30 | 44.54588 | 20.39364 | 8048 ft | 277 kts | 239° |
| 2026-05-05 16:30 | 44.53607 | 20.36989 | 8644 ft | 279 kts | 239° |
| 2026-05-05 16:31 | 44.52628 | 20.34623 | 9250 ft | 282 kts | 240° |
| 2026-05-05 16:31 | 44.51639 | 20.32233 | 9841 ft | 285 kts | 240° |
| 2026-05-05 16:31 | 44.50631 | 20.29854 | 10384 ft | 293 kts | 235° |
| 2026-05-05 16:31 | 44.49069 | 20.27959 | 10964 ft | 303 kts | 204° |
| 2026-05-05 16:32 | 44.47002 | 20.27429 | 11515 ft | 312 kts | 176° |
| 2026-05-05 16:32 | 44.44817 | 20.27675 | 12095 ft | 322 kts | 181° |
| 2026-05-05 16:32 | 44.42641 | 20.26857 | 12686 ft | 329 kts | 210° |
| 2026-05-05 16:32 | 44.40909 | 20.24732 | 13298 ft | 337 kts | 231° |
| 2026-05-05 16:33 | 44.39747 | 20.21873 | 13890 ft | 343 kts | 252° |
| 2026-05-05 16:33 | 44.39397 | 20.18564 | 14442 ft | 348 kts | 274° |
| 2026-05-05 16:33 | 44.39973 | 20.15285 | 15001 ft | 352 kts | 297° |
| 2026-05-05 16:33 | 44.41394 | 20.12507 | 15578 ft | 353 kts | 315° |
| 2026-05-05 16:34 | 44.43115 | 20.10049 | 16155 ft | 355 kts | 315° |
| 2026-05-05 16:34 | 44.44848 | 20.07569 | 16746 ft | 358 kts | 315° |
| 2026-05-05 16:34 | 44.46592 | 20.05057 | 17347 ft | 361 kts | 315° |
| 2026-05-05 16:34 | 44.48341 | 20.02528 | 17965 ft | 363 kts | 315° |
| 2026-05-05 16:35 | 44.50105 | 19.99970 | 18539 ft | 366 kts | 315° |
| 2026-05-05 16:35 | 44.51878 | 19.97397 | 19081 ft | 368 kts | 315° |
| 2026-05-05 16:35 | 44.53659 | 19.94807 | 19637 ft | 370 kts | 315° |
| 2026-05-05 16:35 | 44.55450 | 19.92202 | 20200 ft | 372 kts | 315° |
| 2026-05-05 16:36 | 44.57255 | 19.89579 | 20781 ft | 375 kts | 315° |
| 2026-05-05 16:36 | 44.59069 | 19.86945 | 21369 ft | 376 kts | 315° |
| 2026-05-05 16:36 | 44.60891 | 19.84296 | 21967 ft | 378 kts | 315° |
| 2026-05-05 16:36 | 44.62721 | 19.81634 | 22596 ft | 379 kts | 315° |
| 2026-05-05 16:37 | 44.64554 | 19.78962 | 23199 ft | 380 kts | 315° |
| 2026-05-05 16:37 | 44.66388 | 19.76278 | 23782 ft | 382 kts | 315° |
| 2026-05-05 16:37 | 44.68228 | 19.73584 | 24321 ft | 382 kts | 315° |
| 2026-05-05 16:37 | 44.70071 | 19.70884 | 24864 ft | 383 kts | 315° |
| 2026-05-05 16:38 | 44.71913 | 19.68182 | 25420 ft | 382 kts | 314° |
| 2026-05-05 16:38 | 44.73748 | 19.65482 | 25979 ft | 382 kts | 314° |
| 2026-05-05 16:38 | 44.75583 | 19.62779 | 26556 ft | 381 kts | 314° |
| 2026-05-05 16:38 | 44.77405 | 19.60096 | 27144 ft | 379 kts | 314° |
| 2026-05-05 16:39 | 44.79222 | 19.57420 | 27745 ft | 377 kts | 314° |
| 2026-05-05 16:39 | 44.81028 | 19.54764 | 28358 ft | 375 kts | 314° |
| 2026-05-05 16:39 | 44.82832 | 19.52112 | 28987 ft | 372 kts | 314° |
| 2026-05-05 16:39 | 44.84009 | 19.50378 | 29408 ft | 370 kts | 314° |
| 2026-05-05 16:40 | 44.85784 | 19.47758 | 30055 ft | 367 kts | 314° |
| 2026-05-05 16:40 | 44.87538 | 19.45167 | 30610 ft | 364 kts | 314° |
| 2026-05-05 16:40 | 44.89276 | 19.42599 | 31179 ft | 360 kts | 314° |
| 2026-05-05 16:40 | 44.90994 | 19.40060 | 31757 ft | 356 kts | 314° |
| 2026-05-05 16:41 | 44.92689 | 19.37552 | 32349 ft | 351 kts | 314° |
| 2026-05-05 16:41 | 44.94356 | 19.35081 | 32957 ft | 344 kts | 314° |
| 2026-05-05 16:41 | 44.95987 | 19.32659 | 33565 ft | 336 kts | 314° |
| 2026-05-05 16:41 | 44.97601 | 19.30257 | 33906 ft | 337 kts | 314° |
| 2026-05-05 16:42 | 44.99219 | 19.27846 | 34121 ft | 339 kts | 314° |
| 2026-05-05 16:42 | 45.00848 | 19.25418 | 34339 ft | 341 kts | 314° |
| 2026-05-05 16:42 | 45.02490 | 19.22971 | 34552 ft | 343 kts | 314° |
| 2026-05-05 16:42 | 45.04136 | 19.20519 | 34772 ft | 345 kts | 314° |
| 2026-05-05 16:43 | 45.05789 | 19.18055 | 34980 ft | 347 kts | 314° |
| 2026-05-05 16:43 | 45.07453 | 19.15570 | 35191 ft | 349 kts | 314° |
| 2026-05-05 16:43 | 45.10867 | 19.10459 | 35193 ft | 366 kts | 313° |
| 2026-05-05 16:44 | 45.13801 | 19.04396 | 35198 ft | 383 kts | 296° |
| 2026-05-05 16:44 | 45.16118 | 18.97412 | 35203 ft | 400 kts | 296° |
| 2026-05-05 16:45 | 45.18539 | 18.90136 | 35209 ft | 415 kts | 296° |
| 2026-05-05 16:45 | 45.21022 | 18.82669 | 35211 ft | 420 kts | 296° |
| 2026-05-05 16:46 | 45.23514 | 18.75153 | 35215 ft | 421 kts | 296° |
| 2026-05-05 16:46 | 45.25994 | 18.67630 | 35211 ft | 422 kts | 296° |
| 2026-05-05 16:47 | 45.28476 | 18.60080 | 35215 ft | 422 kts | 296° |
| 2026-05-05 16:47 | 45.30953 | 18.52527 | 35212 ft | 422 kts | 296° |
| 2026-05-05 16:48 | 45.33428 | 18.44962 | 35212 ft | 422 kts | 296° |
| 2026-05-05 16:48 | 45.35901 | 18.37394 | 35213 ft | 422 kts | 296° |
| 2026-05-05 16:49 | 45.38361 | 18.29805 | 35208 ft | 422 kts | 295° |
| 2026-05-05 16:49 | 45.40814 | 18.22221 | 35210 ft | 422 kts | 295° |
| 2026-05-05 16:50 | 45.43267 | 18.14634 | 35211 ft | 422 kts | 295° |
| 2026-05-05 16:50 | 45.45716 | 18.07039 | 35207 ft | 422 kts | 295° |
| 2026-05-05 16:51 | 45.48162 | 17.99438 | 35206 ft | 422 kts | 295° |
| 2026-05-05 16:51 | 45.50600 | 17.91831 | 35210 ft | 422 kts | 295° |
| 2026-05-05 16:52 | 45.53026 | 17.84235 | 35210 ft | 422 kts | 295° |
| 2026-05-05 16:52 | 45.55445 | 17.76647 | 35210 ft | 422 kts | 295° |
| 2026-05-05 16:53 | 45.57868 | 17.69020 | 35208 ft | 422 kts | 295° |
| 2026-05-05 16:53 | 45.60285 | 17.61388 | 35207 ft | 422 kts | 295° |
| 2026-05-05 16:54 | 45.62699 | 17.53753 | 35208 ft | 422 kts | 295° |
| 2026-05-05 16:54 | 45.65101 | 17.46107 | 35209 ft | 422 kts | 295° |
| 2026-05-05 16:55 | 45.67501 | 17.38455 | 35208 ft | 422 kts | 295° |
| 2026-05-05 16:55 | 45.69900 | 17.30801 | 35206 ft | 421 kts | 295° |
| 2026-05-05 16:56 | 45.71089 | 17.26993 | 34857 ft | 418 kts | 295° |
| 2026-05-05 16:56 | 45.72267 | 17.23211 | 34465 ft | 413 kts | 295° |
| 2026-05-05 16:56 | 45.73427 | 17.19483 | 34085 ft | 409 kts | 295° |
| 2026-05-05 16:56 | 45.74580 | 17.15780 | 33657 ft | 404 kts | 295° |
| 2026-05-05 16:57 | 45.75719 | 17.12114 | 33221 ft | 401 kts | 295° |
| 2026-05-05 16:57 | 45.76840 | 17.08497 | 32791 ft | 397 kts | 294° |
| 2026-05-05 16:57 | 45.77957 | 17.04882 | 32382 ft | 394 kts | 294° |
| 2026-05-05 16:57 | 45.79059 | 17.01312 | 31985 ft | 390 kts | 294° |
| 2026-05-05 16:58 | 45.80148 | 16.97779 | 31605 ft | 386 kts | 294° |
| 2026-05-05 16:58 | 45.81228 | 16.94272 | 31230 ft | 383 kts | 294° |
| 2026-05-05 16:58 | 45.82300 | 16.90788 | 30853 ft | 381 kts | 294° |
| 2026-05-05 16:58 | 45.83364 | 16.87329 | 30484 ft | 378 kts | 294° |
| 2026-05-05 16:59 | 45.84422 | 16.83885 | 30124 ft | 376 kts | 294° |
| 2026-05-05 16:59 | 45.85473 | 16.80457 | 29709 ft | 375 kts | 294° |
| 2026-05-05 16:59 | 45.86521 | 16.77040 | 29286 ft | 373 kts | 294° |
| 2026-05-05 16:59 | 45.87563 | 16.73635 | 28870 ft | 372 kts | 294° |
| 2026-05-05 17:00 | 45.88602 | 16.70231 | 28448 ft | 371 kts | 294° |
| 2026-05-05 17:00 | 45.89634 | 16.66851 | 28057 ft | 369 kts | 294° |
| 2026-05-05 17:00 | 45.90663 | 16.63477 | 27654 ft | 368 kts | 294° |
| 2026-05-05 17:00 | 45.91684 | 16.60117 | 27264 ft | 366 kts | 294° |
| 2026-05-05 17:01 | 45.92697 | 16.56777 | 26878 ft | 364 kts | 294° |
| 2026-05-05 17:01 | 45.93693 | 16.53486 | 26508 ft | 363 kts | 294° |
| 2026-05-05 17:01 | 45.94707 | 16.50131 | 26130 ft | 360 kts | 294° |
| 2026-05-05 17:01 | 45.95705 | 16.46838 | 25753 ft | 358 kts | 294° |
| 2026-05-05 17:02 | 45.96696 | 16.43566 | 25391 ft | 356 kts | 294° |
| 2026-05-05 17:02 | 45.97678 | 16.40319 | 25035 ft | 353 kts | 294° |
| 2026-05-05 17:02 | 45.98652 | 16.37088 | 24684 ft | 351 kts | 293° |
| 2026-05-05 17:02 | 45.99603 | 16.33921 | 24327 ft | 348 kts | 293° |
| 2026-05-05 17:03 | 46.00572 | 16.30697 | 23977 ft | 346 kts | 293° |
| 2026-05-05 17:03 | 46.01523 | 16.27532 | 23633 ft | 343 kts | 293° |
| 2026-05-05 17:03 | 46.02465 | 16.24391 | 23223 ft | 341 kts | 293° |
| 2026-05-05 17:03 | 46.03389 | 16.21304 | 22823 ft | 339 kts | 293° |
| 2026-05-05 17:04 | 46.04329 | 16.18164 | 22418 ft | 336 kts | 293° |
| 2026-05-05 17:04 | 46.05238 | 16.15119 | 22027 ft | 334 kts | 293° |
| 2026-05-05 17:04 | 46.06153 | 16.12051 | 21634 ft | 332 kts | 292° |
| 2026-05-05 17:04 | 46.07065 | 16.08998 | 21235 ft | 330 kts | 292° |
| 2026-05-05 17:05 | 46.07969 | 16.05966 | 20857 ft | 329 kts | 292° |
| 2026-05-05 17:05 | 46.08865 | 16.02947 | 20473 ft | 327 kts | 292° |
| 2026-05-05 17:05 | 46.09755 | 15.99941 | 20104 ft | 325 kts | 291° |
| 2026-05-05 17:05 | 46.10651 | 15.96908 | 19739 ft | 324 kts | 291° |
| 2026-05-05 17:06 | 46.11518 | 15.93972 | 19381 ft | 322 kts | 291° |
| 2026-05-05 17:06 | 46.12395 | 15.91006 | 19019 ft | 321 kts | 291° |
| 2026-05-05 17:06 | 46.13268 | 15.88053 | 18669 ft | 320 kts | 291° |
| 2026-05-05 17:06 | 46.14147 | 15.85077 | 18313 ft | 318 kts | 291° |
| 2026-05-05 17:07 | 46.15003 | 15.82180 | 17918 ft | 317 kts | 291° |
| 2026-05-05 17:07 | 46.15863 | 15.79258 | 17522 ft | 316 kts | 290° |
| 2026-05-05 17:07 | 46.16730 | 15.76302 | 17121 ft | 315 kts | 290° |
| 2026-05-05 17:07 | 46.17571 | 15.73433 | 16737 ft | 315 kts | 290° |
| 2026-05-05 17:08 | 46.18423 | 15.70531 | 16345 ft | 314 kts | 290° |
| 2026-05-05 17:08 | 46.19272 | 15.67634 | 15968 ft | 313 kts | 290° |
| 2026-05-05 17:08 | 46.20116 | 15.64750 | 15592 ft | 312 kts | 290° |
| 2026-05-05 17:08 | 46.20961 | 15.61865 | 15223 ft | 311 kts | 290° |
| 2026-05-05 17:09 | 46.21802 | 15.58993 | 14857 ft | 311 kts | 290° |
| 2026-05-05 17:09 | 46.22641 | 15.56120 | 14497 ft | 310 kts | 290° |
| 2026-05-05 17:09 | 46.23476 | 15.53256 | 14137 ft | 309 kts | 289° |
| 2026-05-05 17:09 | 46.24308 | 15.50398 | 13743 ft | 309 kts | 290° |
| 2026-05-05 17:10 | 46.25142 | 15.47521 | 13244 ft | 312 kts | 289° |
| 2026-05-05 17:10 | 46.25980 | 15.44621 | 12753 ft | 314 kts | 289° |
| 2026-05-05 17:10 | 46.26824 | 15.41705 | 12325 ft | 313 kts | 290° |
| 2026-05-05 17:10 | 46.27651 | 15.38852 | 12234 ft | 301 kts | 289° |
| 2026-05-05 17:11 | 46.28276 | 15.36067 | 12247 ft | 282 kts | 276° |
| 2026-05-05 17:11 | 46.28371 | 15.33333 | 12250 ft | 265 kts | 262° |
| 2026-05-05 17:11 | 46.28012 | 15.30803 | 12254 ft | 252 kts | 249° |
| 2026-05-05 17:11 | 46.27277 | 15.28526 | 12255 ft | 249 kts | 240° |
| 2026-05-05 17:12 | 46.26452 | 15.26320 | 12262 ft | 249 kts | 240° |
| 2026-05-05 17:12 | 46.25636 | 15.24108 | 12262 ft | 249 kts | 240° |
| 2026-05-05 17:12 | 46.24825 | 15.21901 | 12263 ft | 249 kts | 240° |
| 2026-05-05 17:12 | 46.24011 | 15.19692 | 12260 ft | 249 kts | 240° |
| 2026-05-05 17:13 | 46.23194 | 15.17482 | 12199 ft | 251 kts | 240° |
| 2026-05-05 17:13 | 46.22366 | 15.15246 | 11811 ft | 254 kts | 240° |
| 2026-05-05 17:13 | 46.21526 | 15.12986 | 11410 ft | 257 kts | 240° |
| 2026-05-05 17:13 | 46.20677 | 15.10706 | 11026 ft | 259 kts | 240° |
| 2026-05-05 17:14 | 46.19816 | 15.08394 | 10559 ft | 264 kts | 241° |
| 2026-05-05 17:14 | 46.18936 | 15.06033 | 10111 ft | 269 kts | 241° |
| 2026-05-05 17:14 | 46.18046 | 15.03637 | 9648 ft | 273 kts | 241° |
| 2026-05-05 17:14 | 46.17141 | 15.01203 | 9148 ft | 278 kts | 241° |
| 2026-05-05 17:15 | 46.16222 | 14.98733 | 8653 ft | 281 kts | 241° |
| 2026-05-05 17:15 | 46.15302 | 14.96266 | 8175 ft | 275 kts | 241° |
| 2026-05-05 17:15 | 46.14407 | 14.93874 | 7696 ft | 266 kts | 241° |
| 2026-05-05 17:15 | 46.13539 | 14.91558 | 7234 ft | 260 kts | 241° |
| 2026-05-05 17:16 | 46.12700 | 14.89320 | 6986 ft | 244 kts | 241° |
| 2026-05-05 17:16 | 46.11912 | 14.87220 | 6668 ft | 234 kts | 241° |
| 2026-05-05 17:16 | 46.11144 | 14.85171 | 6218 ft | 231 kts | 242° |
| 2026-05-05 17:16 | 46.10385 | 14.83145 | 5736 ft | 228 kts | 242° |
| 2026-05-05 17:17 | 46.09638 | 14.81149 | 5261 ft | 225 kts | 242° |
| 2026-05-05 17:17 | 46.09020 | 14.79091 | 4782 ft | 223 kts | 256° |
| 2026-05-05 17:17 | 46.08908 | 14.76906 | 4312 ft | 218 kts | 274° |
| 2026-05-05 17:17 | 46.09290 | 14.74873 | 3905 ft | 202 kts | 290° |
| 2026-05-05 17:18 | 46.09828 | 14.73100 | 3543 ft | 183 kts | 289° |
| 2026-05-05 17:18 | 46.10320 | 14.71453 | 3759 ft | 178 kts | 289° |
| 2026-05-05 17:18 | 46.10807 | 14.69807 | 3969 ft | 179 kts | 289° |
| 2026-05-05 17:18 | 46.11293 | 14.68158 | 4164 ft | 179 kts | 288° |
| 2026-05-05 17:19 | 46.11833 | 14.66531 | 4123 ft | 181 kts | 296° |
| 2026-05-05 17:19 | 46.12524 | 14.65002 | 4048 ft | 181 kts | 300° |
| 2026-05-05 17:19 | 46.13212 | 14.63625 | 3890 ft | 158 kts | 300° |
| 2026-05-05 17:19 | 46.13836 | 14.62399 | 3689 ft | 147 kts | 301° |
| 2026-05-05 17:20 | 46.14434 | 14.61230 | 3502 ft | 143 kts | 301° |
| 2026-05-05 17:20 | 46.15023 | 14.60079 | 3317 ft | 143 kts | 300° |
| 2026-05-05 17:20 | 46.15613 | 14.58930 | 3136 ft | 142 kts | 300° |
| 2026-05-05 17:20 | 46.16002 | 14.58173 | 3011 ft | 142 kts | 301° |
| 2026-05-05 17:21 | 46.16588 | 14.57031 | 2817 ft | 144 kts | 301° |
| 2026-05-05 17:21 | 46.17191 | 14.55858 | 2654 ft | 146 kts | 302° |
| 2026-05-05 17:21 | 46.17776 | 14.54720 | 2442 ft | 134 kts | 304° |
| 2026-05-05 17:22 | 46.18805 | 14.52733 | 2038 ft | 116 kts | 309° |
| 2026-05-05 17:22 | 46.19359 | 14.51822 | 1649 ft | 122 kts | 308° |
| 2026-05-05 17:22 | 46.19917 | 14.50765 | 1849 ft | 147 kts | 303° |
| 2026-05-05 17:22 | 46.20473 | 14.49471 | 1899 ft | 145 kts | 301° |
| 2026-05-05 17:23 | 46.21025 | 14.48283 | 1513 ft | 141 kts | 307° |
| 2026-05-05 17:23 | 46.21613 | 14.47201 | 1256 ft | 130 kts | 306° |
| 2026-05-05 17:23 | 46.22043 | 14.46372 | 1232 ft | 58 kts | 307° |
| 2026-05-05 17:23 | 46.22193 | 14.46108 | 1237 ft | 19 kts | 340° |
| 2026-05-05 17:24 | 46.22305 | 14.46178 | 1236 ft | 19 kts | 25° |
| 2026-05-05 17:24 | 46.22405 | 14.46148 | 1246 ft | 15 kts | 312° |
| 2026-05-05 17:24 | 46.22467 | 14.46026 | 1241 ft | 15 kts | 306° |
| 2026-05-05 17:24 | 46.22535 | 14.45896 | 1249 ft | 17 kts | 307° |
| 2026-05-05 17:25 | 46.22607 | 14.45761 | 1247 ft | 17 kts | 306° |
| 2026-05-05 17:25 | 46.22656 | 14.45669 | 1259 ft | 17 kts | 309° |
| 2026-05-05 17:25 | 46.22749 | 14.45492 | 1257 ft | 16 kts | 301° |
| 2026-05-05 17:25 | 46.22820 | 14.45480 | 1259 ft | 11 kts | 25° |
| 2026-05-05 17:26 | 46.22879 | 14.45448 | 1258 ft | 7 kts | 8° |
| 2026-05-05 17:26 | 46.22882 | 14.45457 | 1263 ft | 0 kts | 71° |